createdAt,value
2018-01-26T00:01:19.904Z,100904.97
2018-01-26T00:03:47.737Z,100910.20
2018-01-26T00:06:16.053Z,100908.02
2018-01-26T00:08:44.116Z,100914.10
2018-01-26T00:11:12.092Z,100907.14
2018-01-26T00:13:40.748Z,100904.13
2018-01-26T00:16:08.722Z,100904.13
2018-01-26T00:18:36.453Z,100897.58
2018-01-26T00:21:06.147Z,100914.98
2018-01-26T00:23:34.389Z,100909.74
2018-01-26T00:26:04.319Z,100910.20
2018-01-26T00:28:32.278Z,100910.63
2018-01-26T00:31:00.444Z,100911.93
2018-01-26T00:33:28.524Z,100907.16
2018-01-26T00:35:56.371Z,100911.05
2018-01-26T00:38:26.336Z,100908.02
2018-01-26T00:40:54.418Z,100907.16
2018-01-26T00:43:22.410Z,100901.09
2018-01-26T00:45:50.420Z,100905.41
2018-01-26T00:48:18.274Z,100902.38
2018-01-26T00:50:46.562Z,100898.02
2018-01-26T00:53:14.531Z,100899.76
2018-01-26T00:55:42.694Z,100903.25
2018-01-26T00:58:10.768Z,100900.66
2018-01-26T01:00:38.766Z,100899.33
2018-01-26T01:03:06.602Z,100898.03
2018-01-26T01:05:49.921Z,100891.52
2018-01-26T01:08:33.778Z,100890.23
2018-01-26T01:11:17.334Z,100890.21
2018-01-26T01:14:00.824Z,100889.35
2018-01-26T01:16:45.613Z,100879.81
2018-01-26T01:19:32.463Z,100878.06
2018-01-26T01:22:15.884Z,100872.41
2018-01-26T01:25:02.981Z,100874.16
2018-01-26T01:27:46.238Z,100875.47
2018-01-26T01:30:31.373Z,100866.34
2018-01-26T01:33:14.049Z,100869.81
2018-01-26T01:35:56.990Z,100865.47
2018-01-26T01:38:24.897Z,100865.47
2018-01-26T01:40:52.988Z,100851.55
2018-01-26T01:43:20.734Z,100852.45
2018-01-26T01:45:48.369Z,100848.10
2018-01-26T01:48:20.436Z,100850.69
2018-01-26T01:50:48.509Z,100850.27
2018-01-26T01:53:16.368Z,100852.88
2018-01-26T01:55:44.237Z,100846.80
2018-01-26T01:58:12.206Z,100845.04
2018-01-26T02:00:40.435Z,100845.48
2018-01-26T02:03:08.551Z,100850.70
2018-01-26T02:05:36.400Z,100846.37
2018-01-26T02:08:04.592Z,100843.77
2018-01-26T02:10:32.526Z,100843.30
2018-01-26T02:13:00.529Z,100836.80
2018-01-26T02:15:30.460Z,100841.16
2018-01-26T02:17:58.303Z,100839.86
2018-01-26T02:20:26.034Z,100842.02
2018-01-26T02:22:53.718Z,100843.74
2018-01-26T02:25:23.663Z,100844.20
2018-01-26T02:27:51.723Z,100842.89
2018-01-26T02:30:19.669Z,100837.23
2018-01-26T02:32:47.612Z,100834.19
2018-01-26T02:35:16.605Z,100832.03
2018-01-26T02:37:44.418Z,100826.81
2018-01-26T02:40:12.259Z,100827.70
2018-01-26T02:42:40.233Z,100826.40
2018-01-26T02:45:08.233Z,100829.41
2018-01-26T02:47:36.091Z,100830.31
2018-01-26T02:50:04.222Z,100825.09
2018-01-26T02:52:32.223Z,100817.70
2018-01-26T02:55:00.079Z,100824.67
2018-01-26T02:57:27.979Z,100825.53
2018-01-26T02:59:55.909Z,100819.03
2018-01-26T03:02:23.877Z,100823.80
2018-01-26T03:04:51.873Z,100822.48
2018-01-26T03:07:21.800Z,100818.16
2018-01-26T03:09:49.780Z,100819.87
2018-01-26T03:12:17.931Z,100812.50
2018-01-26T03:14:45.883Z,100819.43
2018-01-26T03:17:13.843Z,100816.83
2018-01-26T03:19:43.758Z,100820.75
2018-01-26T03:22:11.524Z,100814.67
2018-01-26T03:24:39.242Z,100814.25
2018-01-26T03:27:07.062Z,100809.01
2018-01-26T03:29:39.046Z,100812.05
2018-01-26T03:32:07.784Z,100811.21
2018-01-26T03:34:37.700Z,100812.08
2018-01-26T03:37:05.411Z,100807.29
2018-01-26T03:39:33.096Z,100805.98
2018-01-26T03:42:00.823Z,100804.68
2018-01-26T03:44:28.866Z,100809.91
2018-01-26T03:46:56.827Z,100812.05
2018-01-26T03:49:24.841Z,100809.02
2018-01-26T03:51:52.810Z,100809.05
2018-01-26T03:54:20.874Z,100806.42
2018-01-26T03:56:48.846Z,100812.08
2018-01-26T03:59:16.582Z,100815.53
2018-01-26T04:01:44.583Z,100808.17
2018-01-26T04:04:13.493Z,100814.68
2018-01-26T04:06:41.285Z,100815.11
2018-01-26T04:09:09.214Z,100814.23
2018-01-26T04:11:37.490Z,100819.44
2018-01-26T04:14:05.561Z,100821.17
2018-01-26T04:16:33.437Z,100821.19
2018-01-26T04:19:06.169Z,100820.31
2018-01-26T04:21:34.375Z,100819.90
2018-01-26T04:24:02.367Z,100824.22
2018-01-26T04:26:32.671Z,100818.14
2018-01-26T04:29:00.749Z,100821.61
2018-01-26T04:31:32.821Z,100819.02
2018-01-26T04:34:00.654Z,100817.28
2018-01-26T04:36:30.794Z,100823.80
2018-01-26T04:38:58.872Z,100816.86
2018-01-26T04:41:30.930Z,100815.12
2018-01-26T04:43:59.001Z,100818.59
2018-01-26T04:46:29.121Z,100823.37
2018-01-26T04:48:57.196Z,100832.05
2018-01-26T04:51:25.128Z,100829.01
2018-01-26T04:53:53.129Z,100832.48
2018-01-26T04:56:21.209Z,100824.67
2018-01-26T04:58:49.024Z,100834.66
2018-01-26T05:01:16.841Z,100825.10
2018-01-26T05:03:44.678Z,100827.70
2018-01-26T05:06:12.722Z,100833.33
2018-01-26T05:08:42.832Z,100829.87
2018-01-26T05:11:10.699Z,100828.58
2018-01-26T05:13:40.822Z,100825.53
2018-01-26T05:16:12.538Z,100826.81
2018-01-26T05:18:40.342Z,100825.53
2018-01-26T05:21:08.163Z,100822.92
2018-01-26T05:23:35.912Z,100828.98
2018-01-26T05:26:03.742Z,100829.44
2018-01-26T05:28:34.033Z,100832.02
2018-01-26T05:31:02.085Z,100835.52
2018-01-26T05:33:30.140Z,100836.37
2018-01-26T05:35:58.087Z,100842.88
2018-01-26T05:38:25.846Z,100848.51
2018-01-26T05:40:53.862Z,100844.63
2018-01-26T05:43:21.933Z,100851.56
2018-01-26T05:45:50.004Z,100854.62
2018-01-26T05:48:17.866Z,100863.28
2018-01-26T05:50:45.851Z,100865.02
2018-01-26T05:53:19.863Z,100866.77
2018-01-26T05:55:47.978Z,100871.53
2018-01-26T05:58:15.924Z,100872.41
2018-01-26T06:00:47.958Z,100867.63
2018-01-26T06:03:15.722Z,100862.42
2018-01-26T06:05:44.524Z,100864.59
2018-01-26T06:08:14.641Z,100865.03
2018-01-26T06:10:42.479Z,100856.78
2018-01-26T06:13:14.636Z,100859.36
2018-01-26T06:15:42.610Z,100853.72
2018-01-26T06:18:10.866Z,100852.85
2018-01-26T06:20:43.004Z,100860.64
2018-01-26T06:23:13.202Z,100865.76
2018-01-26T06:25:40.960Z,100860.87
2018-01-26T06:28:08.802Z,100859.91
2018-01-26T06:30:36.488Z,100862.43
2018-01-26T06:33:04.569Z,100855.88
2018-01-26T06:35:36.356Z,100864.10
2018-01-26T06:38:04.411Z,100866.26
2018-01-26T06:40:32.461Z,100857.98
2018-01-26T06:43:00.197Z,100867.08
2018-01-26T06:45:30.543Z,100857.94
2018-01-26T06:48:00.976Z,100859.23
2018-01-26T06:50:29.064Z,100868.67
2018-01-26T06:53:02.269Z,100860.35
2018-01-26T06:55:30.128Z,100862.57
2018-01-26T06:58:04.796Z,100855.58
2018-01-26T07:00:35.230Z,100862.02
2018-01-26T07:03:03.853Z,100859.69
2018-01-26T07:05:31.686Z,100860.89
2018-01-26T07:08:02.497Z,100858.98
2018-01-26T07:10:30.222Z,100855.48
2018-01-26T07:13:01.060Z,100859.89
2018-01-26T07:15:28.848Z,100861.63
2018-01-26T07:17:56.788Z,100856.34
2018-01-26T07:20:24.648Z,100855.89
2018-01-26T07:22:54.673Z,100844.92
2018-01-26T07:25:22.954Z,100854.81
2018-01-26T07:27:51.017Z,100852.89
2018-01-26T07:30:23.145Z,100854.86
2018-01-26T07:32:52.390Z,100852.14
2018-01-26T07:35:20.449Z,100846.78
2018-01-26T07:37:48.226Z,100844.25
2018-01-26T07:40:16.251Z,100842.40
2018-01-26T07:42:44.366Z,100841.38
2018-01-26T07:45:12.082Z,100843.96
2018-01-26T07:47:40.078Z,100836.08
2018-01-26T07:50:09.909Z,100837.52
2018-01-26T07:52:37.885Z,100841.25
2018-01-26T07:55:05.848Z,100837.73
2018-01-26T07:57:33.886Z,100837.73
2018-01-26T08:00:04.026Z,100841.69
2018-01-26T08:02:32.972Z,100845.16
2018-01-26T08:05:00.704Z,100850.84
2018-01-26T08:07:30.774Z,100851.95
2018-01-26T08:09:58.788Z,100852.37
2018-01-26T08:12:26.483Z,100846.00
2018-01-26T08:14:58.261Z,100845.91
2018-01-26T08:17:25.891Z,100848.50
2018-01-26T08:19:53.580Z,100847.41
2018-01-26T08:22:21.712Z,100846.52
2018-01-26T08:24:49.768Z,100846.16
2018-01-26T08:27:17.407Z,100841.84
2018-01-26T08:29:45.996Z,100840.97
2018-01-26T08:32:13.729Z,100839.61
2018-01-26T08:34:41.376Z,100841.33
2018-01-26T08:37:09.051Z,100831.42
2018-01-26T08:39:36.686Z,100834.38
2018-01-26T08:42:04.492Z,100833.08
2018-01-26T08:44:32.252Z,100834.80
2018-01-26T08:46:59.891Z,100834.38
2018-01-26T08:49:27.530Z,100834.77
2018-01-26T08:51:57.284Z,100833.44
2018-01-26T08:54:24.938Z,100833.42
2018-01-26T08:56:53.887Z,100838.22
2018-01-26T08:59:21.641Z,100830.48
2018-01-26T09:01:51.642Z,100826.89
2018-01-26T09:04:19.780Z,100827.83
2018-01-26T09:06:47.581Z,100823.95
2018-01-26T09:09:15.447Z,100822.30
2018-01-26T09:11:43.084Z,100818.52
2018-01-26T09:14:11.554Z,100818.66
2018-01-26T09:16:39.344Z,100813.06
2018-01-26T09:19:07.041Z,100814.14
2018-01-26T09:21:35.534Z,100808.23
2018-01-26T09:24:03.597Z,100807.28
2018-01-26T09:26:31.554Z,100801.75
2018-01-26T09:28:59.592Z,100799.14
2018-01-26T09:31:27.505Z,100798.80
2018-01-26T09:33:55.574Z,100794.48
2018-01-26T09:36:23.350Z,100791.91
2018-01-26T09:38:51.098Z,100789.98
2018-01-26T09:41:19.867Z,100787.00
2018-01-26T09:43:47.572Z,100785.78
2018-01-26T09:46:17.280Z,100777.08
2018-01-26T09:48:44.922Z,100776.81
2018-01-26T09:51:12.556Z,100786.94
2018-01-26T09:53:40.304Z,100775.25
2018-01-26T09:56:08.006Z,100775.75
2018-01-26T09:58:35.642Z,100773.59
2018-01-26T10:01:05.389Z,100773.23
2018-01-26T10:03:33.019Z,100766.03
2018-01-26T10:06:00.665Z,100773.13
2018-01-26T10:08:28.348Z,100768.67
2018-01-26T10:10:56.088Z,100764.29
2018-01-26T10:13:27.832Z,100759.56
2018-01-26T10:15:55.580Z,100767.00
2018-01-26T10:18:23.210Z,100761.80
2018-01-26T10:20:50.894Z,100758.89
2018-01-26T10:23:18.628Z,100759.42
2018-01-26T10:25:50.615Z,100755.91
2018-01-26T10:28:18.447Z,100750.75
2018-01-26T10:30:46.177Z,100743.89
2018-01-26T10:33:16.359Z,100746.60
2018-01-26T10:35:46.277Z,100740.80
2018-01-26T10:38:14.348Z,100740.45
2018-01-26T10:40:42.144Z,100741.40
2018-01-26T10:43:09.875Z,100738.84
2018-01-26T10:45:37.697Z,100735.87
2018-01-26T10:48:05.701Z,100732.43
2018-01-26T10:50:35.632Z,100728.98
2018-01-26T10:53:03.427Z,100728.42
2018-01-26T10:55:33.914Z,100723.59
2018-01-26T10:58:01.994Z,100720.62
2018-01-26T11:00:29.759Z,100710.77
2018-01-26T11:02:58.123Z,100710.92
2018-01-26T11:05:30.233Z,100709.36
2018-01-26T11:07:58.472Z,100710.48
2018-01-26T11:10:26.377Z,100703.64
2018-01-26T11:12:56.615Z,100705.92
2018-01-26T11:15:24.968Z,100706.51
2018-01-26T11:17:52.883Z,100700.89
2018-01-26T11:20:22.316Z,100695.34
2018-01-26T11:22:54.791Z,100690.05
2018-01-26T11:25:22.622Z,100683.20
2018-01-26T11:27:50.711Z,100686.86
2018-01-26T11:30:19.220Z,100676.05
2018-01-26T11:32:46.971Z,100667.31
2018-01-26T11:35:16.006Z,100679.64
2018-01-26T11:37:45.872Z,100674.90
2018-01-26T11:40:14.201Z,100671.56
2018-01-26T11:42:42.029Z,100664.47
2018-01-26T11:45:12.154Z,100669.02
2018-01-26T11:47:41.229Z,100663.05
2018-01-26T11:50:09.087Z,100663.20
2018-01-26T11:52:37.218Z,100655.05
2018-01-26T11:55:05.938Z,100659.14
2018-01-26T11:57:33.902Z,100657.95
2018-01-26T12:00:05.900Z,100660.67
2018-01-26T12:02:35.814Z,100656.21
2018-01-26T12:05:03.729Z,100653.99
2018-01-26T12:07:31.712Z,100655.42
2018-01-26T12:10:01.424Z,100654.20
2018-01-26T12:12:29.368Z,100648.86
2018-01-26T12:14:57.128Z,100648.44
2018-01-26T12:17:27.248Z,100642.89
2018-01-26T12:19:57.288Z,100642.57
2018-01-26T12:22:31.489Z,100636.11
2018-01-26T12:25:01.451Z,100635.66
2018-01-26T12:27:31.009Z,100638.33
2018-01-26T12:29:59.640Z,100633.15
2018-01-26T12:32:27.414Z,100638.95
2018-01-26T12:34:55.332Z,100638.56
2018-01-26T12:37:23.298Z,100639.10
2018-01-26T12:39:55.308Z,100640.93
2018-01-26T12:42:23.304Z,100640.14
2018-01-26T12:44:51.505Z,100637.06
2018-01-26T12:47:23.516Z,100639.23
2018-01-26T12:49:51.589Z,100633.15
2018-01-26T12:52:24.029Z,100636.48
2018-01-26T12:54:52.660Z,100639.98
2018-01-26T12:57:20.418Z,100634.84
2018-01-26T12:59:48.236Z,100637.09
2018-01-26T13:02:16.423Z,100637.42
2018-01-26T13:04:45.094Z,100633.06
2018-01-26T13:07:12.968Z,100634.56
2018-01-26T13:09:44.750Z,100636.37
2018-01-26T13:12:13.512Z,100637.41
2018-01-26T13:14:41.328Z,100632.24
2018-01-26T13:17:11.442Z,100638.89
2018-01-26T13:19:40.236Z,100632.41
2018-01-26T13:22:10.653Z,100642.48
2018-01-26T13:24:38.413Z,100637.27
2018-01-26T13:27:06.793Z,100641.68
2018-01-26T13:29:35.549Z,100636.04
2018-01-26T13:32:06.577Z,100642.19
2018-01-26T13:34:34.491Z,100642.19
2018-01-26T13:37:07.680Z,100643.49
2018-01-26T13:39:39.560Z,100634.59
2018-01-26T13:42:08.137Z,100631.84
2018-01-26T13:44:36.066Z,100627.92
2018-01-26T13:47:04.157Z,100626.80
2018-01-26T13:49:31.975Z,100627.17
2018-01-26T13:51:59.988Z,100626.84
2018-01-26T13:54:28.056Z,100622.63
2018-01-26T13:56:56.153Z,100622.75
2018-01-26T13:59:24.112Z,100625.88
2018-01-26T14:01:51.735Z,100624.18
2018-01-26T14:04:20.643Z,100626.16
2018-01-26T14:06:48.285Z,100619.45
2018-01-26T14:09:18.032Z,100631.30
2018-01-26T14:11:45.662Z,100631.45
2018-01-26T14:14:13.469Z,100630.39
2018-01-26T14:16:41.117Z,100630.98
2018-01-26T14:19:08.788Z,100624.56
2018-01-26T14:21:36.462Z,100628.60
2018-01-26T14:24:04.076Z,100627.53
2018-01-26T14:26:33.812Z,100630.24
2018-01-26T14:29:01.804Z,100629.03
2018-01-26T14:31:29.521Z,100631.77
2018-01-26T14:34:01.197Z,100630.08
2018-01-26T14:36:28.858Z,100637.16
2018-01-26T14:38:56.526Z,100640.75
2018-01-26T14:41:24.150Z,100643.89
2018-01-26T14:43:51.831Z,100645.31
2018-01-26T14:46:21.506Z,100647.14
2018-01-26T14:48:49.153Z,100652.45
2018-01-26T14:51:18.843Z,100647.69
2018-01-26T14:53:46.587Z,100650.39
2018-01-26T14:56:14.295Z,100653.09
2018-01-26T14:58:44.000Z,100650.07
2018-01-26T15:01:11.671Z,100654.49
2018-01-26T15:03:39.342Z,100658.45
2018-01-26T15:06:07.040Z,100651.51
2018-01-26T15:08:34.780Z,100658.16
2018-01-26T15:11:02.396Z,100656.91
2018-01-26T15:13:32.114Z,100662.24
2018-01-26T15:15:59.774Z,100669.70
2018-01-26T15:18:29.775Z,100662.75
2018-01-26T15:20:57.417Z,100671.13
2018-01-26T15:23:25.045Z,100675.55
2018-01-26T15:25:54.930Z,100669.94
2018-01-26T15:28:22.582Z,100667.80
2018-01-26T15:30:50.260Z,100671.33
2018-01-26T15:33:18.011Z,100667.91
2018-01-26T15:35:50.622Z,100674.95
2018-01-26T15:38:18.312Z,100680.25
2018-01-26T15:40:46.016Z,100674.19
2018-01-26T15:43:13.731Z,100685.58
2018-01-26T15:45:41.420Z,100690.44
2018-01-26T15:48:09.049Z,100700.11
2018-01-26T15:50:38.851Z,100704.07
2018-01-26T15:53:06.488Z,100708.92
2018-01-26T15:55:34.155Z,100706.78
2018-01-26T15:58:06.927Z,100711.17
2018-01-26T16:00:34.692Z,100708.19
2018-01-26T16:03:02.344Z,100720.45
2018-01-26T16:05:30.426Z,100720.95
2018-01-26T16:07:58.177Z,100726.66
2018-01-26T16:10:28.194Z,100728.88
2018-01-26T16:12:55.818Z,100731.11
2018-01-26T16:15:26.428Z,100737.23
2018-01-26T16:17:55.200Z,100733.34
2018-01-26T16:20:22.837Z,100742.55
2018-01-26T16:22:50.515Z,100744.33
2018-01-26T16:25:18.160Z,100753.95
2018-01-26T16:27:48.392Z,100756.58
2018-01-26T16:30:16.990Z,100763.14
2018-01-26T16:32:44.632Z,100764.50
2018-01-26T16:35:14.340Z,100769.74
2018-01-26T16:37:46.186Z,100765.85
2018-01-26T16:40:14.709Z,100771.53
2018-01-26T16:42:42.337Z,100769.82
2018-01-26T16:45:14.095Z,100778.56
2018-01-26T16:47:47.820Z,100775.96
2018-01-26T16:50:16.602Z,100775.53
2018-01-26T16:52:48.446Z,100786.91
2018-01-26T16:55:16.188Z,100784.73
2018-01-26T16:57:45.936Z,100783.45
2018-01-26T17:00:13.610Z,100789.13
2018-01-26T17:02:45.317Z,100790.47
2018-01-26T17:05:15.073Z,100798.30
2018-01-26T17:07:46.384Z,100801.38
2018-01-26T17:10:14.246Z,100797.91
2018-01-26T17:12:41.943Z,100800.56
2018-01-26T17:15:09.652Z,100809.27
2018-01-26T17:17:37.364Z,100808.84
2018-01-26T17:20:09.111Z,100815.41
2018-01-26T17:22:41.789Z,100821.53
2018-01-26T17:25:11.568Z,100827.18
2018-01-26T17:27:39.284Z,100829.83
2018-01-26T17:30:08.123Z,100832.00
2018-01-26T17:32:36.621Z,100835.94
2018-01-26T17:35:08.398Z,100841.63
2018-01-26T17:37:36.020Z,100835.52
2018-01-26T17:40:03.655Z,100839.89
2018-01-26T17:42:35.376Z,100839.45
2018-01-26T17:45:07.202Z,100846.88
2018-01-26T17:47:37.041Z,100851.70
2018-01-26T17:50:04.957Z,100850.37
2018-01-26T17:52:37.491Z,100848.23
2018-01-26T17:55:05.884Z,100857.39
2018-01-26T17:57:33.617Z,100849.98
2018-01-26T18:00:05.610Z,100854.80
2018-01-26T18:02:33.282Z,100853.92
2018-01-26T18:05:00.958Z,100853.51
2018-01-26T18:07:29.224Z,100855.70
2018-01-26T18:10:01.058Z,100856.56
2018-01-26T18:12:28.859Z,100860.94
2018-01-26T18:14:56.511Z,100864.44
2018-01-26T18:17:28.346Z,100860.09
2018-01-26T18:19:55.981Z,100861.39
2018-01-26T18:22:24.393Z,100864.88
2018-01-26T18:24:56.239Z,100864.44
2018-01-26T18:27:23.880Z,100865.77
2018-01-26T18:29:51.555Z,100866.22
2018-01-26T18:32:23.246Z,100863.17
2018-01-26T18:34:50.882Z,100867.13
2018-01-26T18:37:18.798Z,100871.05
2018-01-26T18:39:46.465Z,100874.95
2018-01-26T18:42:17.416Z,100878.89
2018-01-26T18:44:47.484Z,100876.70
2018-01-26T18:47:15.113Z,100882.39
2018-01-26T18:49:42.765Z,100884.56
2018-01-26T18:52:10.445Z,100887.61
2018-01-26T18:54:38.078Z,100885.89
2018-01-26T18:57:08.325Z,100888.07
2018-01-26T18:59:35.960Z,100899.84
2018-01-26T19:02:04.298Z,100895.90
2018-01-26T19:04:32.288Z,100898.95
2018-01-26T19:07:04.256Z,100902.89
2018-01-26T19:09:34.133Z,100898.54
2018-01-26T19:12:01.767Z,100908.14
2018-01-26T19:14:34.242Z,100910.27
2018-01-26T19:17:02.135Z,100918.13
2018-01-26T19:19:29.819Z,100914.66
2018-01-26T19:21:59.530Z,100917.26
2018-01-26T19:24:27.312Z,100921.63
2018-01-26T19:26:54.970Z,100929.03
2018-01-26T19:29:25.676Z,100932.94
2018-01-26T19:31:53.305Z,100936.02
2018-01-26T19:34:25.807Z,100930.77
2018-01-26T19:36:55.846Z,100935.56
2018-01-26T19:39:23.513Z,100935.16
2018-01-26T19:41:51.149Z,100931.25
2018-01-26T19:44:23.175Z,100936.45
2018-01-26T19:46:51.504Z,100942.13
2018-01-26T19:49:19.453Z,100941.27
2018-01-26T19:51:49.165Z,100942.12
2018-01-26T19:54:21.268Z,100941.70
2018-01-26T19:56:50.126Z,100947.36
2018-01-26T19:59:17.807Z,100944.77
2018-01-26T20:01:47.590Z,100947.79
2018-01-26T20:07:45.309Z,100961.72
2018-01-26T20:10:14.081Z,100953.92
2018-01-26T20:12:48.505Z,100959.13
2018-01-26T20:15:16.455Z,100952.63
2018-01-26T20:17:45.063Z,100966.53
2018-01-26T20:20:13.932Z,100969.58
2018-01-26T20:22:42.290Z,100964.36
2018-01-26T20:25:10.521Z,100967.41
2018-01-26T20:27:40.765Z,100973.95
2018-01-26T20:30:09.093Z,100974.39
2018-01-26T20:32:37.174Z,100969.14
2018-01-26T20:35:05.544Z,100965.23
2018-01-26T20:37:33.359Z,100967.85
2018-01-26T20:40:02.098Z,100969.16
2018-01-26T20:42:30.243Z,100974.83
2018-01-26T20:45:04.594Z,100968.29
2018-01-26T20:47:34.708Z,100977.45
2018-01-26T20:50:03.364Z,100973.09
2018-01-26T20:52:31.327Z,100976.56
2018-01-26T20:54:59.553Z,100979.18
2018-01-26T20:57:30.479Z,100977.88
2018-01-26T20:59:58.423Z,100980.05
2018-01-26T21:02:26.399Z,100985.29
2018-01-26T21:04:55.083Z,100979.61
2018-01-26T21:07:27.376Z,100982.67
2018-01-26T21:09:55.150Z,100987.90
2018-01-26T21:12:25.351Z,100998.34
2018-01-26T21:14:53.914Z,100993.56
2018-01-26T21:17:24.132Z,101000.97
2018-01-26T21:19:54.348Z,101005.30
2018-01-26T21:22:22.312Z,101010.08
2018-01-26T21:24:50.539Z,101010.96
2018-01-26T21:27:18.444Z,101013.58
2018-01-26T21:29:46.633Z,101014.02
2018-01-26T21:32:15.750Z,101012.28
2018-01-26T21:34:45.988Z,101013.14
2018-01-26T21:37:14.044Z,101017.50
2018-01-26T21:39:41.870Z,101014.01
2018-01-26T21:42:10.097Z,101007.05
2018-01-26T21:44:38.257Z,101007.49
2018-01-26T21:47:06.951Z,101019.25
2018-01-26T21:49:39.016Z,101017.08
2018-01-26T21:52:11.115Z,101024.05
2018-01-26T21:54:43.157Z,101026.20
2018-01-26T21:57:13.364Z,101024.48
2018-01-26T21:59:41.655Z,101030.55
2018-01-26T22:02:11.966Z,101029.25
2018-01-26T22:04:47.731Z,101029.25
2018-01-26T22:07:21.139Z,101024.92
2018-01-26T22:09:51.227Z,101023.19
2018-01-26T22:12:19.598Z,101021.42
2018-01-26T22:14:51.671Z,101019.70
2018-01-26T22:17:19.877Z,101020.98
2018-01-26T22:19:47.967Z,101019.69
2018-01-26T22:22:15.968Z,101011.44
2018-01-26T22:24:44.253Z,101014.05
2018-01-26T22:27:12.464Z,101014.05
2018-01-26T22:29:40.480Z,101015.79
2018-01-26T22:32:08.774Z,101018.84
2018-01-26T22:34:38.787Z,101018.84
2018-01-26T22:37:11.105Z,101024.93
2018-01-26T22:39:39.351Z,101028.83
2018-01-26T22:42:07.509Z,101031.00
2018-01-26T22:44:36.262Z,101021.88
2018-01-26T22:47:04.464Z,101019.69
2018-01-26T22:49:32.403Z,101025.77
2018-01-26T22:52:00.592Z,101016.22
2018-01-26T22:54:30.629Z,101025.35
2018-01-26T22:56:58.527Z,101026.64
2018-01-26T22:59:26.778Z,101023.59
2018-01-26T23:01:54.850Z,101020.58
2018-01-26T23:04:25.061Z,101025.78
2018-01-26T23:06:55.329Z,101027.95
2018-01-26T23:09:23.426Z,101034.05
2018-01-26T23:11:51.619Z,101029.70
2018-01-26T23:14:21.650Z,101030.58
2018-01-26T23:16:49.900Z,101027.98
2018-01-26T23:19:17.867Z,101028.83
2018-01-26T23:21:45.939Z,101028.39
2018-01-26T23:24:14.236Z,101029.70
2018-01-26T23:26:42.059Z,101034.92
2018-01-26T23:29:10.249Z,101036.23
2018-01-26T23:31:38.218Z,101033.16
2018-01-26T23:34:06.222Z,101034.03
2018-01-26T23:36:35.519Z,101034.91
2018-01-26T23:39:03.662Z,101035.36
2018-01-26T23:41:33.813Z,101034.06
2018-01-26T23:44:02.070Z,101042.31
2018-01-26T23:46:34.007Z,101038.39
2018-01-26T23:49:02.234Z,101034.48
2018-01-26T23:51:30.199Z,101041.88
2018-01-26T23:53:58.340Z,101039.70
2018-01-26T23:56:26.420Z,101042.32
2018-01-26T23:58:54.360Z,101044.92
